Time;durP1;ratioP1;P1;durP2;ratioP2;P2;SDS_P1;SDS_P2;PMS_P1;PMS_P2;Temp;Humidity;BMP_temperature;BMP_pressure;BME280_temperature;BME280_humidity;BME280_pressure;Samples;Min_cycle;Max_cycle;Signal;HPM_P1;HPM_P2
2022/05/19 00:00:34;;;;;;;25.65;14.70;;;;;;;20.51;62.20;101821.59;4979943;28;20076;-58
2022/05/19 00:03:00;;;;;;;20.98;14.63;;;;;;;20.43;62.61;101824.31;4979504;28;20580;-59
2022/05/19 00:05:26;;;;;;;23.13;15.02;;;;;;;20.45;62.57;101822.53;4972102;28;20866;-58
2022/05/19 00:07:51;;;;;;;21.55;15.05;;;;;;;20.46;62.54;101823.44;4976926;28;20407;-59
2022/05/19 00:10:17;;;;;;;22.70;15.10;;;;;;;20.55;62.24;101818.88;4976415;28;20235;-59
2022/05/19 00:12:42;;;;;;;23.00;14.93;;;;;;;20.56;62.16;101811.81;4976625;28;20092;-59
2022/05/19 00:15:08;;;;;;;22.58;14.68;;;;;;;20.57;62.25;101832.09;4980520;28;20052;-60
2022/05/19 00:17:34;;;;;;;21.70;14.73;;;;;;;20.61;62.26;101821.44;4977894;28;20129;-59
2022/05/19 00:19:59;;;;;;;21.23;14.90;;;;;;;20.63;62.10;101821.44;4984637;28;20297;-59
2022/05/19 00:22:25;;;;;;;24.85;14.95;;;;;;;20.63;62.16;101810.84;4981113;28;20493;-59
2022/05/19 00:24:50;;;;;;;25.85;16.35;;;;;;;20.53;62.58;101803.91;4993802;28;20050;-60
2022/05/19 00:27:16;;;;;;;25.33;16.13;;;;;;;20.55;62.41;101804.78;4978960;28;20125;-58
2022/05/19 00:29:42;;;;;;;22.08;16.00;;;;;;;20.56;62.35;101802.09;4972804;28;20784;-58
2022/05/19 00:32:07;;;;;;;22.85;15.75;;;;;;;20.60;62.47;101798.53;4976268;28;20682;-59
2022/05/19 00:34:33;;;;;;;24.02;16.13;;;;;;;20.69;62.13;101801.91;4980306;28;20119;-58
2022/05/19 00:37:01;;;;;;;22.83;17.00;;;;;;;20.70;62.18;101793.97;4977958;28;20196;-59
2022/05/19 00:39:28;;;;;;;22.38;15.68;;;;;;;20.72;62.17;101783.34;4972546;28;20188;-58
2022/05/19 00:42:43;;;;;;;24.02;16.38;;;;;;;20.67;62.33;101783.41;4974327;28;20043;-59
2022/05/19 00:44:40;;;;;;;24.98;16.48;;;;;;;20.59;62.78;101778.22;4980633;28;20042;-60
2022/05/19 00:47:11;;;;;;;27.15;16.73;;;;;;;20.55;62.95;101771.19;4979565;28;20033;-60
2022/05/19 00:49:42;;;;;;;23.20;15.70;;;;;;;20.51;63.33;101773.91;4974250;28;20345;-58
2022/05/19 00:52:13;;;;;;;25.70;17.00;;;;;;;20.53;63.61;101782.72;4974597;28;20693;-59
2022/05/19 00:54:53;;;;;;;26.13;16.40;;;;;;;20.54;63.68;101774.75;4978533;28;20498;-59
2022/05/19 00:57:28;;;;;;;29.02;17.55;;;;;;;20.59;63.51;101772.91;4975473;28;20056;-58
2022/05/19 01:00:17;;;;;;;30.10;17.85;;;;;;;20.62;63.69;101770.22;4979229;28;20085;-58
2022/05/19 01:02:50;;;;;;;28.80;18.35;;;;;;;20.62;63.61;101764.03;4978447;28;20041;-58
2022/05/19 01:05:29;;;;;;;28.77;17.75;;;;;;;20.69;63.55;101759.53;4980492;28;20416;-58
2022/05/19 01:08:16;;;;;;;29.70;17.40;;;;;;;20.70;63.69;101748.91;4984601;28;20514;-58
2022/05/19 01:10:44;;;;;;;26.73;17.67;;;;;;;20.69;63.81;101752.47;4975675;28;20069;-58
2022/05/19 01:13:11;;;;;;;26.88;17.20;;;;;;;20.67;63.77;101759.56;4973807;28;20038;-58
2022/05/19 01:15:51;;;;;;;27.30;17.50;;;;;;;20.64;64.13;101752.53;4972526;28;20492;-57
2022/05/19 01:18:17;;;;;;;28.50;18.77;;;;;;;20.54;64.46;101737.66;4981102;28;20397;-59
2022/05/19 01:20:45;;;;;;;29.67;18.85;;;;;;;20.57;64.34;101726.13;4981599;28;20394;-59
2022/05/19 01:23:27;;;;;;;25.67;19.35;;;;;;;20.61;64.31;101730.50;4977568;28;20121;-59
2022/05/19 01:26:04;;;;;;;26.23;18.40;;;;;;;20.63;64.12;101726.94;4977599;28;20046;-59
2022/05/19 01:28:30;;;;;;;28.95;19.25;;;;;;;20.53;64.35;101717.38;4977025;28;20060;-59
2022/05/19 01:30:55;;;;;;;25.00;18.92;;;;;;;20.64;64.31;101723.38;4980788;28;20412;-58
2022/05/19 01:33:21;;;;;;;27.10;19.13;;;;;;;20.64;64.33;101725.16;4973482;28;20038;-58
2022/05/19 01:35:47;;;;;;;28.15;19.30;;;;;;;20.64;64.48;101726.03;4976278;28;20069;-59
2022/05/19 01:38:21;;;;;;;33.00;19.30;;;;;;;20.67;64.39;101738.38;4978541;28;20066;-59
2022/05/19 01:41:05;;;;;;;;;;;;;;;20.69;64.58;101727.72;4980246;28;20704;-58
2022/05/19 01:43:43;;;;;;;27.05;18.75;;;;;;;20.75;64.46;101720.56;4968948;28;19933;-58
2022/05/19 01:46:33;;;;;;;28.85;19.67;;;;;;;20.81;64.16;101716.94;4985688;28;20033;-57
2022/05/19 01:49:22;;;;;;;29.83;19.42;;;;;;;20.81;64.24;101722.25;4975888;28;20042;-58
2022/05/19 01:51:53;;;;;;;29.00;20.10;;;;;;;20.80;64.38;101723.16;4981751;28;20050;-58
2022/05/19 01:54:51;;;;;;;28.90;19.52;;;;;;;20.84;64.19;101712.50;4984155;28;20084;-59
2022/05/19 01:57:26;;;;;;;26.83;18.77;;;;;;;20.90;63.93;101706.22;4968672;28;20425;-59
2022/05/19 01:59:59;;;;;;;30.67;20.20;;;;;;;20.89;63.73;101700.03;4979759;28;20116;-59
2022/05/19 02:02:40;;;;;;;30.35;20.15;;;;;;;20.95;64.25;101693.75;4976357;28;20460;-57
2022/05/19 02:05:19;;;;;;;31.35;20.55;;;;;;;20.98;63.73;101699.88;4979954;28;20047;-58
2022/05/19 02:07:48;;;;;;;29.08;19.77;;;;;;;21.08;62.99;101700.59;4974153;28;20111;-58
2022/05/19 02:10:22;;;;;;;29.10;20.40;;;;;;;21.06;63.35;101732.44;4980825;28;20046;-59
2022/05/19 02:12:49;;;;;;;29.58;20.17;;;;;;;21.10;63.47;101769.53;4985097;28;20046;-58
2022/05/19 02:15:19;;;;;;;34.15;21.40;;;;;;;21.05;65.89;101791.66;4983022;28;20488;-58
2022/05/19 02:17:46;;;;;;;38.92;21.35;;;;;;;20.85;67.44;101767.25;4982142;28;20121;-58
2022/05/19 02:20:15;;;;;;;36.72;22.27;;;;;;;20.59;69.04;101767.63;4981144;28;20050;-59
2022/05/19 02:22:44;;;;;;;33.70;22.65;;;;;;;20.49;69.77;101765.13;4979104;28;20047;-59
2022/05/19 02:25:22;;;;;;;37.20;23.73;;;;;;;20.42;70.52;101774.91;4980973;28;20259;-59
2022/05/19 02:27:52;;;;;;;34.40;23.23;;;;;;;20.35;71.48;101780.31;4978071;28;20042;-60
2022/05/19 02:30:24;;;;;;;39.13;23.63;;;;;;;20.31;71.84;101763.53;4982723;28;20377;-59
2022/05/19 02:32:50;;;;;;;35.97;24.25;;;;;;;20.24;72.20;101773.34;4977936;28;20350;-59
2022/05/19 02:35:17;;;;;;;38.58;24.55;;;;;;;20.19;72.76;101769.84;4980662;28;20053;-60
2022/05/19 02:37:43;;;;;;;39.22;25.77;;;;;;;20.14;73.57;101787.56;4972893;28;21920;-60
2022/05/19 02:40:11;;;;;;;41.95;25.98;;;;;;;20.10;74.25;101803.50;4979024;28;20130;-59
2022/05/19 02:42:37;;;;;;;40.70;26.70;;;;;;;20.11;74.45;101792.91;4977789;28;20489;-59
2022/05/19 02:45:03;;;;;;;49.72;29.17;;;;;;;20.17;74.93;101786.66;4979298;28;20047;-60
2022/05/19 02:47:28;;;;;;;48.38;28.08;;;;;;;20.18;75.11;101785.78;4974716;28;20185;-59
2022/05/19 02:49:54;;;;;;;43.60;27.40;;;;;;;20.24;75.09;101785.72;4976127;28;20042;-59
2022/05/19 02:52:19;;;;;;;45.22;26.88;;;;;;;20.31;75.17;101775.91;4981938;28;20101;-59
2022/05/19 02:54:44;;;;;;;46.67;27.75;;;;;;;20.38;75.02;101781.13;4985817;28;20346;-59
2022/05/19 02:57:09;;;;;;;43.35;26.25;;;;;;;20.52;74.64;101786.25;4981418;28;20569;-60
2022/05/19 02:59:35;;;;;;;41.35;25.77;;;;;;;20.58;74.68;101783.53;4976198;28;20069;-60
2022/05/19 03:02:00;;;;;;;39.85;25.17;;;;;;;20.63;74.42;101787.00;4981010;28;20049;-60
2022/05/19 03:04:26;;;;;;;38.33;24.90;;;;;;;20.70;74.19;101791.31;4981421;28;20061;-59
2022/05/19 03:06:52;;;;;;;39.15;24.05;;;;;;;20.73;74.04;101787.75;4978168;28;20038;-58
2022/05/19 03:09:17;;;;;;;35.67;21.52;;;;;;;20.76;73.52;101777.97;4979453;28;20041;-59
2022/05/19 03:11:43;;;;;;;27.85;17.80;;;;;;;20.65;73.41;101756.06;4969015;28;20220;-59
2022/05/19 03:14:08;;;;;;;22.35;14.88;;;;;;;20.73;73.01;101735.63;4980782;28;20042;-58
2022/05/19 03:16:34;;;;;;;19.08;13.35;;;;;;;20.97;72.13;101768.84;4977724;28;20060;-59
2022/05/19 03:18:59;;;;;;;22.40;14.20;;;;;;;20.99;72.57;101783.81;4977153;28;20467;-60
2022/05/19 03:21:24;;;;;;;22.80;13.80;;;;;;;20.86;72.95;101763.69;4968116;28;20050;-59
2022/05/19 03:23:50;;;;;;;19.13;13.32;;;;;;;20.85;72.91;101753.13;4979082;28;20035;-59
2022/05/19 03:26:15;;;;;;;21.60;13.25;;;;;;;20.81;72.94;101754.94;4980641;28;20404;-58
2022/05/19 03:28:40;;;;;;;19.50;12.95;;;;;;;20.77;73.43;101742.63;4983595;28;20061;-59
2022/05/19 03:31:08;;;;;;;14.15;9.85;;;;;;;20.69;73.44;101749.81;4982194;28;20403;-58
2022/05/19 03:33:33;;;;;;;15.77;9.82;;;;;;;20.74;73.24;101752.41;4974056;28;20948;-59
2022/05/19 03:36:01;;;;;;;14.57;9.13;;;;;;;20.84;73.04;101889.19;4983187;28;20375;-57
2022/05/19 03:38:27;;;;;;;13.13;9.50;;;;;;;20.87;72.94;101953.63;4981118;28;20053;-58
2022/05/19 03:40:53;;;;;;;25.17;15.00;;;;;;;20.86;73.55;101953.69;4974195;28;20049;-57
2022/05/19 03:43:19;;;;;;;27.50;16.48;;;;;;;20.91;73.74;101968.63;4975826;28;20042;-59
2022/05/19 03:45:45;;;;;;;32.58;19.05;;;;;;;20.85;74.26;101944.84;4974969;28;20828;-60
2022/05/19 03:48:10;;;;;;;28.88;18.23;;;;;;;20.91;74.64;101951.84;4984012;28;20448;-59
2022/05/19 03:50:36;;;;;;;25.55;17.55;;;;;;;20.99;73.96;101949.94;4978560;28;20046;-59
2022/05/19 03:53:01;;;;;;;34.25;20.15;;;;;;;20.90;74.37;101907.66;4975061;28;20364;-59
2022/05/19 03:55:28;;;;;;;31.13;20.13;;;;;;;20.77;75.23;101912.25;4974101;28;20037;-59
2022/05/19 03:57:54;;;;;;;27.58;18.33;;;;;;;20.74;75.54;101924.66;4979628;28;20042;-60
2022/05/19 04:00:21;;;;;;;29.77;19.05;;;;;;;20.61;76.01;101900.94;4979177;28;20560;-59
2022/05/19 04:02:46;;;;;;;29.80;19.55;;;;;;;20.62;76.30;101892.09;4979653;28;20046;-59
2022/05/19 04:05:13;;;;;;;29.38;19.60;;;;;;;20.62;76.39;101892.09;4974304;28;20057;-60
2022/05/19 04:07:39;;;;;;;28.75;19.88;;;;;;;20.61;76.45;101869.13;4972323;28;20330;-58
2022/05/19 04:10:06;;;;;;;32.97;21.38;;;;;;;20.57;76.73;101887.75;4978065;28;20331;-60
2022/05/19 04:12:31;;;;;;;31.30;19.83;;;;;;;20.56;76.48;101881.56;4976115;28;20054;-60
2022/05/19 04:14:56;;;;;;;24.33;17.40;;;;;;;20.60;76.25;101855.94;4983509;28;20061;-59
2022/05/19 04:17:22;;;;;;;29.88;20.70;;;;;;;20.57;76.29;101869.19;4973037;28;20095;-63
2022/05/19 04:19:47;;;;;;;34.65;23.27;;;;;;;20.53;76.63;101878.09;4982317;28;20057;-60
2022/05/19 04:22:13;;;;;;;27.52;20.52;;;;;;;20.61;76.28;101863.84;4974796;28;20050;-60
2022/05/19 04:24:39;;;;;;;35.22;24.00;;;;;;;20.60;76.43;101858.59;4976093;28;20092;-60
2022/05/19 04:27:05;;;;;;;33.90;23.92;;;;;;;20.56;76.58;101873.63;4988188;28;20359;-59
2022/05/19 04:29:30;;;;;;;36.13;24.95;;;;;;;20.53;76.70;101875.44;4972989;28;20567;-59
2022/05/19 04:31:55;;;;;;;35.83;25.45;;;;;;;20.53;76.79;101872.78;4974897;28;20057;-59
2022/05/19 04:34:21;;;;;;;35.95;24.80;;;;;;;20.54;76.70;101856.88;4980482;28;20442;-60
2022/05/19 04:36:46;;;;;;;36.85;24.63;;;;;;;20.47;76.87;101863.16;4982249;28;20610;-59
2022/05/19 04:39:13;;;;;;;39.35;25.80;;;;;;;20.41;77.13;101860.56;4976381;28;20050;-59
2022/05/19 04:41:38;;;;;;;31.70;23.05;;;;;;;20.41;77.25;101855.28;4970640;28;20046;-59
2022/05/19 04:44:04;;;;;;;33.00;23.08;;;;;;;20.41;76.98;101846.44;4978072;28;20397;-59
2022/05/19 04:46:30;;;;;;;34.75;25.25;;;;;;;20.41;77.32;101844.69;4977017;28;20057;-59
2022/05/19 04:48:55;;;;;;;33.13;23.42;;;;;;;20.44;77.49;101843.75;4981332;28;20038;-59
2022/05/19 04:51:21;;;;;;;34.05;23.73;;;;;;;20.46;77.37;101850.78;4973650;28;20037;-60
2022/05/19 04:53:46;;;;;;;35.42;24.50;;;;;;;20.44;77.40;101859.63;4980534;28;20053;-59
2022/05/19 04:56:11;;;;;;;30.95;22.40;;;;;;;20.46;77.27;101847.25;4974366;28;20104;-59
2022/05/19 04:58:37;;;;;;;28.55;21.70;;;;;;;20.54;76.90;101848.06;4976722;28;20034;-59
2022/05/19 05:01:04;;;;;;;31.95;23.95;;;;;;;20.55;77.08;101849.81;4973016;28;20445;-58
2022/05/19 05:03:30;;;;;;;32.05;23.98;;;;;;;20.55;76.88;101845.38;4972367;28;20120;-59
2022/05/19 05:05:55;;;;;;;36.42;26.17;;;;;;;20.53;77.02;101841.00;4979457;28;20073;-59
2022/05/19 05:08:20;;;;;;;35.47;25.05;;;;;;;20.61;77.12;101832.03;4981035;28;20410;-59
2022/05/19 05:10:46;;;;;;;31.02;22.73;;;;;;;20.71;76.57;101822.22;4982303;28;20054;-59
2022/05/19 05:13:13;;;;;;;33.85;24.33;;;;;;;20.66;76.69;101813.47;4973023;28;20046;-59
2022/05/19 05:15:40;;;;;;;32.53;23.58;;;;;;;20.69;76.86;101796.63;4974846;28;20577;-59
2022/05/19 05:18:06;;;;;;;35.53;23.30;;;;;;;20.76;76.51;101791.22;4980983;28;20050;-59
2022/05/19 05:20:33;;;;;;;32.63;23.38;;;;;;;20.82;76.64;101785.84;4978229;28;20052;-59
2022/05/19 05:22:58;;;;;;;32.83;23.45;;;;;;;20.89;76.51;101776.03;4979463;28;20540;-59
2022/05/19 05:25:26;;;;;;;34.47;23.13;;;;;;;20.84;76.63;101759.31;4977377;28;20046;-60
2022/05/19 05:27:52;;;;;;;32.63;23.80;;;;;;;20.91;76.95;101748.59;4974032;28;20153;-59
2022/05/19 05:30:17;;;;;;;33.50;22.83;;;;;;;20.86;76.91;101739.81;4975369;28;20037;-59
2022/05/19 05:32:42;;;;;;;32.72;22.42;;;;;;;20.88;76.95;101731.84;4974687;28;20046;-59
2022/05/19 05:35:08;;;;;;;33.55;22.70;;;;;;;21.00;76.63;101735.19;4978592;28;20041;-59
2022/05/19 05:37:34;;;;;;;28.83;21.40;;;;;;;21.00;76.38;101726.38;4973198;28;20049;-59
2022/05/19 05:40:01;;;;;;;30.23;21.48;;;;;;;21.09;76.26;101731.53;4985076;28;20038;-59
2022/05/19 05:42:26;;;;;;;28.77;20.98;;;;;;;21.11;75.66;101742.09;4978525;28;20133;-59
2022/05/19 05:44:52;;;;;;;28.30;20.08;;;;;;;20.97;74.75;101732.59;4988878;28;20049;-57
2022/05/19 05:47:17;;;;;;;25.17;20.83;;;;;;;21.13;74.57;101722.63;4978857;28;20052;-58
2022/05/19 05:49:43;;;;;;;24.38;20.13;;;;;;;21.16;73.71;101724.38;4978525;28;20321;-59
2022/05/19 05:52:08;;;;;;;25.92;20.70;;;;;;;21.15;73.26;101727.91;4977906;28;20077;-59
2022/05/19 05:54:34;;;;;;;26.48;19.90;;;;;;;21.23;71.98;101731.31;4974064;28;20489;-59
2022/05/19 05:57:01;;;;;;;22.60;18.55;;;;;;;21.31;71.83;101737.38;4982002;28;20136;-60
2022/05/19 05:59:26;;;;;;;24.80;19.75;;;;;;;21.34;71.70;101735.56;4979344;28;20235;-58
2022/05/19 06:01:51;;;;;;;27.05;20.05;;;;;;;21.34;72.28;101732.03;4974133;28;20049;-59
2022/05/19 06:04:17;;;;;;;27.67;21.30;;;;;;;21.37;73.42;101727.53;4976494;28;20271;-59
2022/05/19 06:06:45;;;;;;;26.77;20.30;;;;;;;21.49;73.29;101726.44;4975421;28;20042;-59
2022/05/19 06:09:12;;;;;;;24.90;19.75;;;;;;;21.59;73.24;101735.97;4977585;28;20043;-60
2022/05/19 06:11:37;;;;;;;23.13;18.55;;;;;;;21.69;72.95;101739.34;4971261;28;20382;-58
2022/05/19 06:14:02;;;;;;;22.50;18.35;;;;;;;21.76;73.30;101727.72;4977603;28;20490;-58
2022/05/19 06:16:28;;;;;;;24.70;18.23;;;;;;;21.75;73.05;101731.25;4976098;28;20468;-60
2022/05/19 06:18:54;;;;;;;21.50;17.50;;;;;;;21.86;72.98;101724.84;4969293;28;20069;-59
2022/05/19 06:21:19;;;;;;;22.67;16.20;;;;;;;21.79;72.45;101712.59;4970728;28;21403;-59
2022/05/19 06:23:44;;;;;;;20.45;16.63;;;;;;;22.01;71.86;101721.06;4973187;28;20065;-60
2022/05/19 06:26:10;;;;;;;21.60;15.57;;;;;;;22.07;70.81;101723.59;4964987;28;20575;-58
2022/05/19 06:28:35;;;;;;;21.70;16.08;;;;;;;22.14;70.94;101713.72;4971290;28;20050;-59
2022/05/19 06:31:01;;;;;;;20.05;15.63;;;;;;;22.41;70.74;101721.06;4983953;28;20046;-59
2022/05/19 06:33:27;;;;;;;19.27;15.50;;;;;;;22.49;69.89;101719.13;4973269;28;20533;-58
2022/05/19 06:35:53;;;;;;;22.30;15.88;;;;;;;22.57;69.97;101722.47;4985476;28;20049;-59
2022/05/19 06:38:18;;;;;;;21.45;16.38;;;;;;;22.59;69.93;101725.97;4975776;28;20405;-60
2022/05/19 06:40:45;;;;;;;19.83;15.07;;;;;;;22.87;69.93;101733.34;4981115;28;20037;-58
2022/05/19 06:43:19;;;;;;;19.48;14.48;;;;;;;22.94;68.58;101735.81;4982162;28;20037;-59
2022/05/19 06:45:44;;;;;;;18.30;14.35;;;;;;;23.18;68.65;101739.66;4979758;28;20050;-60
2022/05/19 06:48:11;;;;;;;18.33;13.20;;;;;;;23.79;67.68;101746.06;4978393;28;20045;-59
2022/05/19 06:50:36;;;;;;;19.27;12.93;;;;;;;24.44;65.40;101754.00;4981701;28;20045;-60
2022/05/19 06:53:03;;;;;;;19.27;13.93;;;;;;;24.53;62.71;101765.25;4977801;28;20638;-59
2022/05/19 06:55:30;;;;;;;17.73;11.73;;;;;;;24.89;62.88;101765.91;4972787;28;20218;-60
2022/05/19 06:57:56;;;;;;;14.93;12.60;;;;;;;25.03;60.15;101765.47;4979424;28;20136;-59
2022/05/19 07:00:24;;;;;;;19.63;14.20;;;;;;;25.26;60.90;101759.38;4978393;28;20097;-60
2022/05/19 07:02:53;;;;;;;17.30;12.98;;;;;;;25.70;60.85;101756.09;4978801;28;20042;-58
2022/05/19 07:05:21;;;;;;;22.55;13.00;;;;;;;25.79;60.03;101745.09;4973117;28;20136;-59
2022/05/19 07:07:48;;;;;;;14.25;10.82;;;;;;;26.06;58.51;101745.88;4975730;28;20030;-60
2022/05/19 07:10:16;;;;;;;16.85;11.52;;;;;;;26.13;56.86;101741.19;4982913;28;20146;-59
2022/05/19 07:12:43;;;;;;;16.55;12.50;;;;;;;25.77;60.22;101744.28;4981365;28;20042;-59
2022/05/19 07:15:09;;;;;;;15.60;12.30;;;;;;;25.91;58.94;101743.78;4983833;28;20468;-60
2022/05/19 07:17:34;;;;;;;16.67;11.95;;;;;;;25.52;60.76;101731.81;4974955;28;20038;-59
2022/05/19 07:22:44;;;;;;;;;;;;;;;25.03;61.83;101730.81;4976763;28;20078;-60
2022/05/19 07:25:11;;;;;;;15.68;10.98;;;;;;;24.98;62.38;101738.09;4980525;28;20300;-60
2022/05/19 07:27:37;;;;;;;13.88;10.48;;;;;;;24.78;61.09;101743.16;4963968;28;20050;-60
2022/05/19 07:30:04;;;;;;;14.45;11.52;;;;;;;24.58;60.86;101757.09;4978855;28;20124;-59
2022/05/19 07:32:30;;;;;;;14.85;11.18;;;;;;;24.81;61.29;101757.28;4983167;28;20060;-59
2022/05/19 07:34:58;;;;;;;17.02;11.70;;;;;;;24.81;60.69;101765.28;4977746;28;20029;-60
2022/05/19 07:37:24;;;;;;;16.20;11.07;;;;;;;24.99;60.15;101769.19;4972721;28;20184;-60
2022/05/19 07:39:51;;;;;;;16.67;11.32;;;;;;;24.79;60.51;101768.91;4979178;28;20037;-59
2022/05/19 07:42:16;;;;;;;17.08;12.73;;;;;;;24.36;63.93;101782.66;4976025;28;20045;-60
2022/05/19 07:44:42;;;;;;;14.43;12.38;;;;;;;24.32;63.84;101786.34;4980215;28;20104;-59
2022/05/19 07:47:07;;;;;;;16.05;12.35;;;;;;;24.24;64.12;101776.78;4976006;28;20057;-60
2022/05/19 07:49:33;;;;;;;17.65;11.55;;;;;;;24.29;63.41;101781.97;4972746;28;20446;-59
2022/05/19 07:51:58;;;;;;;17.20;12.43;;;;;;;24.18;64.88;101790.28;4970459;28;20029;-59
2022/05/19 07:54:26;;;;;;;14.77;11.48;;;;;;;23.91;65.77;101798.13;4972914;28;20050;-59
2022/05/19 07:56:53;;;;;;;14.13;11.50;;;;;;;23.78;65.08;101784.28;4979770;28;20057;-60
2022/05/19 07:59:19;;;;;;;14.27;10.82;;;;;;;23.96;64.37;101780.22;4970572;28;20049;-59
2022/05/19 08:01:46;;;;;;;13.35;10.20;;;;;;;24.43;63.72;101779.78;4970544;28;20369;-60
2022/05/19 08:04:13;;;;;;;11.85;9.68;;;;;;;24.42;63.76;101771.81;4978447;28;20592;-60
2022/05/19 08:06:39;;;;;;;12.73;10.02;;;;;;;24.56;63.10;101766.94;4975025;28;20042;-59
2022/05/19 08:11:51;;;;;;;10.25;8.38;;;;;;;26.16;59.44;101767.81;4976162;28;20045;-59
2022/05/19 08:17:02;;;;;;;11.65;7.88;;;;;;;27.65;53.76;101765.38;4978137;28;20044;-60
2022/05/19 08:19:27;;;;;;;10.25;7.75;;;;;;;28.52;50.60;101769.50;4973713;28;20064;-58
2022/05/19 08:21:53;;;;;;;11.20;7.78;;;;;;;28.86;49.11;101775.00;4972535;28;20046;-59
2022/05/19 08:24:18;;;;;;;9.50;7.18;;;;;;;28.90;51.09;101781.13;4974972;28;20642;-60
2022/05/19 08:26:43;;;;;;;9.98;7.93;;;;;;;28.76;48.60;101784.47;4981680;28;20156;-59
2022/05/19 08:29:09;;;;;;;8.38;6.70;;;;;;;28.25;51.21;101774.31;4979279;28;20043;-59
2022/05/19 08:31:35;;;;;;;10.05;6.57;;;;;;;28.28;51.15;101759.91;4973460;28;20130;-59
2022/05/19 08:34:03;;;;;;;10.73;9.02;;;;;;;27.61;51.25;101749.50;4981406;28;20564;-59
2022/05/19 08:36:29;;;;;;;10.27;8.80;;;;;;;27.17;54.17;101749.56;4982002;28;20411;-59
2022/05/19 08:38:56;;;;;;;10.75;9.15;;;;;;;27.24;55.37;101742.16;4977708;28;20073;-59
2022/05/19 08:41:33;;;;;;;13.35;9.73;;;;;;;26.81;54.83;101738.53;4976363;28;20057;-59
2022/05/19 08:44:10;;;;;;;13.45;9.68;;;;;;;26.86;54.59;101749.03;4969651;28;20133;-58
2022/05/19 08:46:42;;;;;;;12.32;10.20;;;;;;;26.66;54.69;101742.69;4967179;28;20061;-59
2022/05/19 08:49:41;;;;;;;15.45;9.68;;;;;;;26.95;56.80;101728.19;4972731;28;20042;-59
2022/05/19 08:52:10;;;;;;;13.98;10.02;;;;;;;26.78;53.34;101735.09;4971650;28;20108;-59
2022/05/19 08:54:37;;;;;;;14.88;10.18;;;;;;;27.21;53.35;101728.88;4971889;28;20046;-58
2022/05/19 08:57:21;;;;;;;12.85;9.45;;;;;;;27.20;54.14;101732.50;4978972;28;20042;-59
2022/05/19 08:59:59;;;;;;;13.07;8.95;;;;;;;27.53;51.88;101736.44;4976661;28;20160;-59
2022/05/19 09:02:49;;;;;;;11.23;8.77;;;;;;;27.53;49.54;101747.16;4972300;28;20588;-58
2022/05/19 09:05:58;;;;;;;11.98;9.00;;;;;;;27.39;50.06;101750.38;4974297;28;20512;-59
2022/05/19 09:08:36;;;;;;;14.13;10.15;;;;;;;27.74;49.97;101767.66;4978463;28;20731;-58
2022/05/19 09:11:23;;;;;;;13.23;9.68;;;;;;;27.63;50.99;101764.56;4970357;28;20279;-59
2022/05/19 09:13:51;;;;;;;13.40;10.70;;;;;;;27.22;51.81;101776.13;4979022;28;21408;-58
2022/05/19 09:16:23;;;;;;;11.55;9.70;;;;;;;27.32;52.09;101774.84;4975338;28;20054;-58
2022/05/19 09:19:06;;;;;;;12.68;9.45;;;;;;;27.62;49.79;101780.72;4969357;28;20108;-59
2022/05/19 09:21:34;;;;;;;14.48;10.20;;;;;;;27.79;50.10;101771.00;4962408;28;20757;-58
2022/05/19 09:23:59;;;;;;;13.05;8.93;;;;;;;27.94;49.75;101765.88;4975482;28;20063;-59
2022/05/19 09:26:43;;;;;;;12.10;8.38;;;;;;;28.27;47.06;101758.16;4971496;28;20854;-59
2022/05/19 09:29:12;;;;;;;10.30;8.27;;;;;;;28.32;46.96;101750.78;4980399;28;20143;-59
2022/05/19 09:31:51;;;;;;;10.25;7.80;;;;;;;28.47;49.47;101753.63;4974075;28;20056;-59
2022/05/19 09:34:18;;;;;;;8.20;6.50;;;;;;;28.84;48.99;101744.72;4968487;28;20057;-62
2022/05/19 09:37:01;;;;;;;7.75;5.70;;;;;;;29.13;48.10;101742.38;4973959;28;20042;-59
2022/05/19 09:39:33;;;;;;;8.02;5.82;;;;;;;28.67;47.00;101741.06;4981180;28;20112;-59
2022/05/19 09:42:05;;;;;;;8.70;5.88;;;;;;;28.93;44.30;101740.69;4978874;28;20049;-60
2022/05/19 09:44:34;;;;;;;8.82;5.93;;;;;;;28.83;44.83;101740.28;4972656;28;20408;-59
2022/05/19 09:47:16;;;;;;;7.50;5.70;;;;;;;28.33;45.41;101733.75;4981107;28;20437;-58
2022/05/19 09:49:48;;;;;;;8.63;5.30;;;;;;;28.35;47.26;101730.06;4971986;28;20057;-58
2022/05/19 09:52:21;;;;;;;8.63;4.85;;;;;;;28.57;46.34;101721.84;4978335;28;20398;-57
2022/05/19 09:54:54;;;;;;;6.97;4.95;;;;;;;29.17;44.94;101704.53;4984376;28;20048;-58
2022/05/19 09:57:34;;;;;;;6.32;4.65;;;;;;;29.03;43.14;101704.41;4974326;28;20042;-60
2022/05/19 10:00:04;;;;;;;7.50;4.47;;;;;;;29.06;44.44;101714.97;4974837;28;20046;-58
2022/05/19 10:02:36;;;;;;;7.35;4.55;;;;;;;29.39;43.71;101725.84;4969051;28;20046;-60
2022/05/19 10:05:20;;;;;;;6.45;4.78;;;;;;;28.58;42.81;101723.59;4979536;28;20481;-58
2022/05/19 10:07:49;;;;;;;7.63;4.72;;;;;;;28.92;46.28;101725.50;4973409;28;20493;-59
2022/05/19 10:10:29;;;;;;;7.05;5.15;;;;;;;28.69;44.25;101725.75;4976943;28;20468;-58
2022/05/19 10:13:00;;;;;;;6.13;4.53;;;;;;;28.75;42.59;101723.66;4981850;28;20369;-59
2022/05/19 10:15:35;;;;;;;7.10;4.38;;;;;;;28.80;43.52;101727.00;4982048;28;20160;-58
2022/05/19 10:18:21;;;;;;;7.40;4.38;;;;;;;28.75;46.50;101726.34;4977667;28;20236;-58
2022/05/19 10:21:08;;;;;;;9.38;4.80;;;;;;;28.53;46.78;101731.00;4971991;28;20124;-59
2022/05/19 10:23:50;;;;;;;8.20;4.65;;;;;;;28.48;46.31;101743.75;4973551;28;20037;-58
2022/05/19 10:26:41;;;;;;;8.93;4.80;;;;;;;28.11;46.88;101748.13;4975711;28;20039;-57
2022/05/19 10:32:33;;;;;;;8.00;4.97;;;;;;;27.76;51.08;101759.53;4971606;28;20056;-59
2022/05/19 10:35:17;;;;;;;7.20;5.15;;;;;;;27.73;49.60;101754.31;4976901;28;20091;-59
2022/05/19 10:38:21;;;;;;;9.70;5.07;;;;;;;27.56;49.24;101759.56;4978563;28;20281;-60
2022/05/19 10:41:24;;;;;;;7.78;5.70;;;;;;;27.22;49.94;101785.03;4983594;28;20046;-60
2022/05/19 10:44:04;;;;;;;8.40;5.78;;;;;;;26.94;50.79;101787.97;4976991;28;20082;-58
2022/05/19 10:47:12;;;;;;;7.90;5.32;;;;;;;26.73;51.22;101798.63;4970994;28;20053;-59
2022/05/19 10:49:59;;;;;;;10.10;6.68;;;;;;;26.51;51.80;101823.53;4977087;28;20047;-59
2022/05/19 10:52:59;;;;;;;10.30;6.65;;;;;;;26.23;52.58;101844.13;4973908;28;20050;-59
2022/05/19 10:55:34;;;;;;;17.73;10.55;;;;;;;25.84;55.69;101863.34;4982606;28;20030;-59
2022/05/19 10:58:32;;;;;;;19.15;13.25;;;;;;;25.00;60.79;101878.53;4981815;28;20045;-59
2022/05/19 11:01:08;;;;;;;29.52;15.55;;;;;;;24.44;63.53;101892.59;4982927;28;20101;-59
2022/05/19 11:03:37;;;;;;;27.83;16.98;;;;;;;23.94;65.35;101899.25;4976663;28;20140;-59
2022/05/19 11:06:11;;;;;;;24.73;17.80;;;;;;;23.49;67.52;101898.59;4980448;28;20048;-59
2022/05/19 11:09:04;;;;;;;24.20;16.83;;;;;;;23.27;69.05;101896.41;4978094;28;20058;-59
2022/05/19 11:11:35;;;;;;;23.58;15.93;;;;;;;23.05;69.27;101893.34;4974589;28;20686;-59
2022/05/19 11:14:25;;;;;;;23.70;15.15;;;;;;;22.94;70.05;101902.47;4983200;28;20492;-60
2022/05/19 11:17:30;;;;;;;22.67;14.77;;;;;;;22.80;71.45;101917.84;4970548;28;20523;-60
2022/05/19 11:20:14;;;;;;;20.60;14.50;;;;;;;22.65;70.95;101924.31;4976645;28;20046;-59
2022/05/19 11:22:41;;;;;;;23.60;15.38;;;;;;;22.64;70.76;101922.56;4973015;28;20579;-60
2022/05/19 11:28:40;;;;;;;17.05;12.02;;;;;;;22.39;70.34;101907.97;4974947;28;20903;-59
2022/05/19 11:31:15;;;;;;;14.18;11.15;;;;;;;22.31;69.75;101912.59;4975456;28;20077;-60
2022/05/19 11:33:44;;;;;;;17.45;12.10;;;;;;;22.30;70.49;101917.03;4970618;28;20496;-60
2022/05/19 11:36:22;;;;;;;16.08;12.00;;;;;;;22.18;70.26;101926.09;4973306;28;20038;-58
2022/05/19 11:38:51;;;;;;;17.30;13.05;;;;;;;22.15;71.02;101936.75;4980900;28;20089;-59
2022/05/19 11:41:24;;;;;;;17.45;11.23;;;;;;;22.17;70.38;101947.38;4975781;28;20543;-59